Terminal Aerodrome Forecast
Issued by NWS

Home | Current Version | Previous Version | Text Only | Print | Product List | Glossary On
Versions: 1 2 3 4 5 6 7 8 9 10 11 12 13 14 15 16 17 18 19 20 21 22 23 24
000
FTUS41 KAKQ 242300 CCA
TAFPHF
TAF COR
KPHF 242348Z 2500/2524 06006KT 4SM -RA BR BKN025 OVC050
      TEMPO 2500/2502 2SM +RA BR BKN008 OVC025
     FM250500 01004KT 4SM BR BKN050 OVC120
     FM251400 04007KT P6SM SCT250=

USA.gov is the U.S. government's official web portal to all federal, state and local government web resources and services.